sensor_id;sensor_type;location;lat;lon;timestamp;P1;durP1;ratioP1;P2;durP2;ratioP2
17424;SDS011;8830;50.978;5.058;2022-12-17T00:01:15;54.33;;;25.63;;
17424;SDS011;8830;50.978;5.058;2022-12-17T00:04:00;49.73;;;24.77;;
17424;SDS011;8830;50.978;5.058;2022-12-17T00:06:44;40.83;;;23.53;;
17424;SDS011;8830;50.978;5.058;2022-12-17T00:09:30;44.57;;;23.83;;
17424;SDS011;8830;50.978;5.058;2022-12-17T00:12:16;42.57;;;24.27;;
17424;SDS011;8830;50.978;5.058;2022-12-17T00:15:03;45.37;;;24.20;;
17424;SDS011;8830;50.978;5.058;2022-12-17T00:17:48;48.17;;;24.07;;
17424;SDS011;8830;50.978;5.058;2022-12-17T00:20:33;40.33;;;23.37;;
17424;SDS011;8830;50.978;5.058;2022-12-17T00:23:18;45.37;;;25.20;;
17424;SDS011;8830;50.978;5.058;2022-12-17T00:26:05;42.77;;;24.00;;
17424;SDS011;8830;50.978;5.058;2022-12-17T00:28:49;36.93;;;22.53;;
17424;SDS011;8830;50.978;5.058;2022-12-17T00:31:39;38.63;;;21.40;;
17424;SDS011;8830;50.978;5.058;2022-12-17T00:34:31;36.10;;;21.77;;
17424;SDS011;8830;50.978;5.058;2022-12-17T00:37:16;37.33;;;21.80;;
17424;SDS011;8830;50.978;5.058;2022-12-17T00:40:00;38.20;;;20.80;;
17424;SDS011;8830;50.978;5.058;2022-12-17T00:42:51;38.53;;;20.93;;
17424;SDS011;8830;50.978;5.058;2022-12-17T00:45:42;34.37;;;20.23;;
17424;SDS011;8830;50.978;5.058;2022-12-17T00:48:31;36.97;;;18.83;;
17424;SDS011;8830;50.978;5.058;2022-12-17T00:51:16;38.70;;;20.17;;
17424;SDS011;8830;50.978;5.058;2022-12-17T00:54:01;37.30;;;20.23;;
17424;SDS011;8830;50.978;5.058;2022-12-17T00:56:46;35.07;;;20.53;;
17424;SDS011;8830;50.978;5.058;2022-12-17T00:59:32;33.53;;;20.73;;
17424;SDS011;8830;50.978;5.058;2022-12-17T01:02:17;33.73;;;19.50;;
17424;SDS011;8830;50.978;5.058;2022-12-17T01:05:02;38.43;;;20.73;;
17424;SDS011;8830;50.978;5.058;2022-12-17T01:07:47;44.03;;;22.03;;
17424;SDS011;8830;50.978;5.058;2022-12-17T01:10:32;36.07;;;20.03;;
17424;SDS011;8830;50.978;5.058;2022-12-17T01:13:18;42.17;;;20.00;;
17424;SDS011;8830;50.978;5.058;2022-12-17T01:16:05;39.00;;;20.30;;
17424;SDS011;8830;50.978;5.058;2022-12-17T01:18:51;36.63;;;19.10;;
17424;SDS011;8830;50.978;5.058;2022-12-17T01:21:35;39.33;;;21.27;;
17424;SDS011;8830;50.978;5.058;2022-12-17T01:24:20;36.63;;;20.97;;
17424;SDS011;8830;50.978;5.058;2022-12-17T01:27:05;39.23;;;20.87;;
17424;SDS011;8830;50.978;5.058;2022-12-17T01:30:02;38.97;;;21.33;;
17424;SDS011;8830;50.978;5.058;2022-12-17T01:32:47;38.00;;;20.00;;
17424;SDS011;8830;50.978;5.058;2022-12-17T01:35:28;35.73;;;20.07;;
17424;SDS011;8830;50.978;5.058;2022-12-17T01:38:18;42.63;;;20.70;;
17424;SDS011;8830;50.978;5.058;2022-12-17T01:41:03;39.07;;;20.53;;
17424;SDS011;8830;50.978;5.058;2022-12-17T01:43:50;35.67;;;19.70;;
17424;SDS011;8830;50.978;5.058;2022-12-17T01:46:35;38.53;;;20.17;;
17424;SDS011;8830;50.978;5.058;2022-12-17T01:49:24;35.90;;;21.00;;
17424;SDS011;8830;50.978;5.058;2022-12-17T01:52:10;39.13;;;20.53;;
17424;SDS011;8830;50.978;5.058;2022-12-17T01:54:58;38.83;;;20.77;;
17424;SDS011;8830;50.978;5.058;2022-12-17T01:57:44;36.70;;;20.97;;
17424;SDS011;8830;50.978;5.058;2022-12-17T02:00:28;38.70;;;20.23;;
17424;SDS011;8830;50.978;5.058;2022-12-17T02:03:13;35.10;;;19.57;;
17424;SDS011;8830;50.978;5.058;2022-12-17T02:06:10;34.33;;;19.67;;
17424;SDS011;8830;50.978;5.058;2022-12-17T02:09:00;44.87;;;22.47;;
17424;SDS011;8830;50.978;5.058;2022-12-17T02:11:51;34.10;;;19.80;;
17424;SDS011;8830;50.978;5.058;2022-12-17T02:14:43;39.30;;;20.83;;
17424;SDS011;8830;50.978;5.058;2022-12-17T02:17:37;42.77;;;22.07;;
17424;SDS011;8830;50.978;5.058;2022-12-17T02:20:25;45.60;;;21.53;;
17424;SDS011;8830;50.978;5.058;2022-12-17T02:23:25;36.07;;;21.00;;
17424;SDS011;8830;50.978;5.058;2022-12-17T02:26:18;38.00;;;21.80;;
17424;SDS011;8830;50.978;5.058;2022-12-17T02:29:12;39.57;;;21.43;;
17424;SDS011;8830;50.978;5.058;2022-12-17T02:31:57;33.70;;;20.10;;
17424;SDS011;8830;50.978;5.058;2022-12-17T02:34:42;40.50;;;21.07;;
17424;SDS011;8830;50.978;5.058;2022-12-17T02:37:26;48.27;;;23.20;;
17424;SDS011;8830;50.978;5.058;2022-12-17T02:40:11;43.20;;;22.37;;
17424;SDS011;8830;50.978;5.058;2022-12-17T02:42:57;44.63;;;22.70;;
17424;SDS011;8830;50.978;5.058;2022-12-17T02:45:56;46.10;;;22.00;;
17424;SDS011;8830;50.978;5.058;2022-12-17T02:48:41;38.73;;;21.73;;
17424;SDS011;8830;50.978;5.058;2022-12-17T02:51:26;38.90;;;21.87;;
17424;SDS011;8830;50.978;5.058;2022-12-17T02:54:19;43.30;;;22.33;;
17424;SDS011;8830;50.978;5.058;2022-12-17T02:57:04;44.40;;;22.20;;
17424;SDS011;8830;50.978;5.058;2022-12-17T02:59:50;39.10;;;22.40;;
17424;SDS011;8830;50.978;5.058;2022-12-17T03:02:34;36.13;;;20.83;;
17424;SDS011;8830;50.978;5.058;2022-12-17T03:05:22;39.07;;;22.00;;
17424;SDS011;8830;50.978;5.058;2022-12-17T03:08:07;38.47;;;22.37;;
17424;SDS011;8830;50.978;5.058;2022-12-17T03:10:52;39.47;;;22.50;;
17424;SDS011;8830;50.978;5.058;2022-12-17T03:13:36;42.53;;;23.10;;
17424;SDS011;8830;50.978;5.058;2022-12-17T03:16:22;39.00;;;21.63;;
17424;SDS011;8830;50.978;5.058;2022-12-17T03:19:07;45.77;;;23.60;;
17424;SDS011;8830;50.978;5.058;2022-12-17T03:21:52;38.17;;;21.30;;
17424;SDS011;8830;50.978;5.058;2022-12-17T03:24:36;43.00;;;23.13;;
17424;SDS011;8830;50.978;5.058;2022-12-17T03:27:21;40.53;;;22.40;;
17424;SDS011;8830;50.978;5.058;2022-12-17T03:30:06;45.63;;;22.70;;
17424;SDS011;8830;50.978;5.058;2022-12-17T03:32:57;43.80;;;22.20;;
17424;SDS011;8830;50.978;5.058;2022-12-17T03:35:42;38.63;;;21.03;;
17424;SDS011;8830;50.978;5.058;2022-12-17T03:38:26;42.33;;;22.00;;
17424;SDS011;8830;50.978;5.058;2022-12-17T03:41:11;42.50;;;21.57;;
17424;SDS011;8830;50.978;5.058;2022-12-17T03:43:56;43.00;;;22.23;;
17424;SDS011;8830;50.978;5.058;2022-12-17T03:46:40;44.90;;;23.93;;
17424;SDS011;8830;50.978;5.058;2022-12-17T03:49:26;39.00;;;21.93;;
17424;SDS011;8830;50.978;5.058;2022-12-17T03:52:11;48.97;;;23.27;;
17424;SDS011;8830;50.978;5.058;2022-12-17T03:54:55;45.87;;;23.23;;
17424;SDS011;8830;50.978;5.058;2022-12-17T03:57:42;47.70;;;22.57;;
17424;SDS011;8830;50.978;5.058;2022-12-17T04:00:26;44.83;;;22.20;;
17424;SDS011;8830;50.978;5.058;2022-12-17T04:03:11;41.77;;;22.83;;
17424;SDS011;8830;50.978;5.058;2022-12-17T04:05:57;39.70;;;22.83;;
17424;SDS011;8830;50.978;5.058;2022-12-17T04:08:41;43.63;;;23.27;;
17424;SDS011;8830;50.978;5.058;2022-12-17T04:11:26;51.23;;;23.27;;
17424;SDS011;8830;50.978;5.058;2022-12-17T04:14:11;45.63;;;22.20;;
17424;SDS011;8830;50.978;5.058;2022-12-17T04:16:55;46.80;;;23.30;;
17424;SDS011;8830;50.978;5.058;2022-12-17T04:19:41;41.97;;;23.83;;
17424;SDS011;8830;50.978;5.058;2022-12-17T04:22:27;56.00;;;25.13;;
17424;SDS011;8830;50.978;5.058;2022-12-17T04:25:12;50.80;;;24.70;;
17424;SDS011;8830;50.978;5.058;2022-12-17T04:27:56;42.03;;;23.40;;
17424;SDS011;8830;50.978;5.058;2022-12-17T04:30:40;49.97;;;24.50;;
17424;SDS011;8830;50.978;5.058;2022-12-17T04:33:25;50.43;;;25.40;;
17424;SDS011;8830;50.978;5.058;2022-12-17T04:36:08;51.53;;;25.10;;
17424;SDS011;8830;50.978;5.058;2022-12-17T04:38:54;51.47;;;24.70;;
17424;SDS011;8830;50.978;5.058;2022-12-17T04:41:47;47.67;;;25.67;;
17424;SDS011;8830;50.978;5.058;2022-12-17T04:44:32;50.87;;;24.83;;
17424;SDS011;8830;50.978;5.058;2022-12-17T04:47:16;47.30;;;25.40;;
17424;SDS011;8830;50.978;5.058;2022-12-17T04:50:01;46.93;;;25.40;;
17424;SDS011;8830;50.978;5.058;2022-12-17T04:52:45;46.47;;;24.27;;
17424;SDS011;8830;50.978;5.058;2022-12-17T04:55:42;52.73;;;25.20;;
17424;SDS011;8830;50.978;5.058;2022-12-17T04:58:27;53.67;;;25.70;;
17424;SDS011;8830;50.978;5.058;2022-12-17T05:01:11;47.13;;;24.03;;
17424;SDS011;8830;50.978;5.058;2022-12-17T05:03:56;49.03;;;24.33;;
17424;SDS011;8830;50.978;5.058;2022-12-17T05:06:40;50.50;;;25.97;;
17424;SDS011;8830;50.978;5.058;2022-12-17T05:09:25;49.60;;;26.07;;
17424;SDS011;8830;50.978;5.058;2022-12-17T05:12:11;53.10;;;24.23;;
17424;SDS011;8830;50.978;5.058;2022-12-17T05:14:55;50.90;;;25.47;;
17424;SDS011;8830;50.978;5.058;2022-12-17T05:17:40;53.70;;;25.40;;
17424;SDS011;8830;50.978;5.058;2022-12-17T05:20:24;55.37;;;27.60;;
17424;SDS011;8830;50.978;5.058;2022-12-17T05:23:09;55.87;;;25.87;;
17424;SDS011;8830;50.978;5.058;2022-12-17T05:25:59;53.40;;;26.90;;
17424;SDS011;8830;50.978;5.058;2022-12-17T05:28:49;56.13;;;25.60;;
17424;SDS011;8830;50.978;5.058;2022-12-17T05:31:33;53.27;;;25.23;;
17424;SDS011;8830;50.978;5.058;2022-12-17T05:34:18;58.50;;;27.30;;
17424;SDS011;8830;50.978;5.058;2022-12-17T05:37:02;56.27;;;27.33;;
17424;SDS011;8830;50.978;5.058;2022-12-17T05:39:47;67.20;;;26.73;;
17424;SDS011;8830;50.978;5.058;2022-12-17T05:42:31;59.43;;;27.23;;
17424;SDS011;8830;50.978;5.058;2022-12-17T05:45:17;62.30;;;28.47;;
17424;SDS011;8830;50.978;5.058;2022-12-17T05:48:01;58.00;;;27.90;;
17424;SDS011;8830;50.978;5.058;2022-12-17T05:50:54;63.33;;;28.70;;
17424;SDS011;8830;50.978;5.058;2022-12-17T05:53:38;73.47;;;28.70;;
17424;SDS011;8830;50.978;5.058;2022-12-17T05:56:31;62.07;;;27.57;;
17424;SDS011;8830;50.978;5.058;2022-12-17T05:59:15;64.30;;;29.17;;
17424;SDS011;8830;50.978;5.058;2022-12-17T06:02:02;59.53;;;27.70;;
17424;SDS011;8830;50.978;5.058;2022-12-17T06:04:46;56.67;;;27.00;;
17424;SDS011;8830;50.978;5.058;2022-12-17T06:07:31;60.27;;;27.50;;
17424;SDS011;8830;50.978;5.058;2022-12-17T06:10:15;60.73;;;26.83;;
17424;SDS011;8830;50.978;5.058;2022-12-17T06:13:02;61.53;;;27.57;;
17424;SDS011;8830;50.978;5.058;2022-12-17T06:15:47;59.57;;;27.30;;
17424;SDS011;8830;50.978;5.058;2022-12-17T06:18:33;64.10;;;26.67;;
17424;SDS011;8830;50.978;5.058;2022-12-17T06:21:27;63.50;;;27.27;;
17424;SDS011;8830;50.978;5.058;2022-12-17T06:24:11;57.33;;;26.90;;
17424;SDS011;8830;50.978;5.058;2022-12-17T06:27:04;63.13;;;26.07;;
17424;SDS011;8830;50.978;5.058;2022-12-17T06:29:49;55.63;;;25.53;;
17424;SDS011;8830;50.978;5.058;2022-12-17T06:32:33;59.30;;;25.97;;
17424;SDS011;8830;50.978;5.058;2022-12-17T06:35:19;51.27;;;25.07;;
17424;SDS011;8830;50.978;5.058;2022-12-17T06:38:04;55.00;;;25.97;;
17424;SDS011;8830;50.978;5.058;2022-12-17T06:40:50;57.83;;;25.37;;
17424;SDS011;8830;50.978;5.058;2022-12-17T06:43:35;57.30;;;27.20;;
17424;SDS011;8830;50.978;5.058;2022-12-17T06:46:20;54.13;;;26.37;;
17424;SDS011;8830;50.978;5.058;2022-12-17T06:49:04;61.10;;;28.00;;
17424;SDS011;8830;50.978;5.058;2022-12-17T06:51:50;58.70;;;27.90;;
17424;SDS011;8830;50.978;5.058;2022-12-17T06:54:35;52.63;;;25.90;;
17424;SDS011;8830;50.978;5.058;2022-12-17T06:57:20;61.53;;;26.87;;
17424;SDS011;8830;50.978;5.058;2022-12-17T07:00:04;54.17;;;26.17;;
17424;SDS011;8830;50.978;5.058;2022-12-17T07:02:53;62.20;;;28.47;;
17424;SDS011;8830;50.978;5.058;2022-12-17T07:05:38;52.87;;;24.93;;
17424;SDS011;8830;50.978;5.058;2022-12-17T07:08:36;55.13;;;27.60;;
17424;SDS011;8830;50.978;5.058;2022-12-17T07:11:20;62.10;;;26.80;;
17424;SDS011;8830;50.978;5.058;2022-12-17T07:14:05;68.77;;;27.97;;
17424;SDS011;8830;50.978;5.058;2022-12-17T07:16:50;64.27;;;27.80;;
17424;SDS011;8830;50.978;5.058;2022-12-17T07:19:35;58.27;;;28.07;;
17424;SDS011;8830;50.978;5.058;2022-12-17T07:22:19;65.27;;;28.97;;
17424;SDS011;8830;50.978;5.058;2022-12-17T07:25:05;67.20;;;28.40;;
17424;SDS011;8830;50.978;5.058;2022-12-17T07:27:53;66.47;;;28.50;;
17424;SDS011;8830;50.978;5.058;2022-12-17T07:30:38;68.73;;;28.97;;
17424;SDS011;8830;50.978;5.058;2022-12-17T07:33:23;60.43;;;28.27;;
17424;SDS011;8830;50.978;5.058;2022-12-17T07:36:08;65.03;;;27.83;;
17424;SDS011;8830;50.978;5.058;2022-12-17T07:38:55;65.50;;;28.23;;
17424;SDS011;8830;50.978;5.058;2022-12-17T07:41:41;74.17;;;30.43;;
17424;SDS011;8830;50.978;5.058;2022-12-17T07:44:26;77.90;;;31.97;;
17424;SDS011;8830;50.978;5.058;2022-12-17T07:47:11;87.67;;;34.03;;
17424;SDS011;8830;50.978;5.058;2022-12-17T07:50:11;80.17;;;32.33;;
17424;SDS011;8830;50.978;5.058;2022-12-17T07:53:00;87.43;;;32.73;;
17424;SDS011;8830;50.978;5.058;2022-12-17T07:55:47;89.53;;;34.70;;
17424;SDS011;8830;50.978;5.058;2022-12-17T07:58:37;84.90;;;34.37;;
17424;SDS011;8830;50.978;5.058;2022-12-17T08:01:26;95.27;;;32.30;;
17424;SDS011;8830;50.978;5.058;2022-12-17T08:04:13;91.27;;;33.30;;
17424;SDS011;8830;50.978;5.058;2022-12-17T08:06:58;85.97;;;33.23;;
17424;SDS011;8830;50.978;5.058;2022-12-17T08:09:42;88.07;;;34.10;;
17424;SDS011;8830;50.978;5.058;2022-12-17T08:12:32;92.40;;;34.20;;
17424;SDS011;8830;50.978;5.058;2022-12-17T08:18:07;92.30;;;33.97;;
17424;SDS011;8830;50.978;5.058;2022-12-17T08:20:56;98.73;;;34.77;;
17424;SDS011;8830;50.978;5.058;2022-12-17T08:23:41;96.10;;;34.50;;
17424;SDS011;8830;50.978;5.058;2022-12-17T08:26:28;103.80;;;36.10;;
17424;SDS011;8830;50.978;5.058;2022-12-17T08:29:14;97.93;;;35.30;;
17424;SDS011;8830;50.978;5.058;2022-12-17T08:32:00;107.53;;;37.27;;
17424;SDS011;8830;50.978;5.058;2022-12-17T08:34:45;100.77;;;35.03;;
17424;SDS011;8830;50.978;5.058;2022-12-17T08:37:31;103.13;;;36.17;;
17424;SDS011;8830;50.978;5.058;2022-12-17T08:40:16;103.47;;;35.57;;
17424;SDS011;8830;50.978;5.058;2022-12-17T08:43:02;116.50;;;40.60;;
17424;SDS011;8830;50.978;5.058;2022-12-17T08:45:47;106.53;;;39.03;;
17424;SDS011;8830;50.978;5.058;2022-12-17T08:48:34;122.90;;;38.83;;
17424;SDS011;8830;50.978;5.058;2022-12-17T08:51:22;117.87;;;39.50;;
17424;SDS011;8830;50.978;5.058;2022-12-17T08:54:07;106.07;;;37.60;;
17424;SDS011;8830;50.978;5.058;2022-12-17T08:56:52;125.40;;;39.53;;
17424;SDS011;8830;50.978;5.058;2022-12-17T08:59:43;102.63;;;38.43;;
17424;SDS011;8830;50.978;5.058;2022-12-17T09:02:41;117.60;;;38.70;;
17424;SDS011;8830;50.978;5.058;2022-12-17T09:05:27;100.00;;;34.27;;
17424;SDS011;8830;50.978;5.058;2022-12-17T09:08:12;92.00;;;32.73;;
17424;SDS011;8830;50.978;5.058;2022-12-17T09:11:00;94.20;;;33.30;;
17424;SDS011;8830;50.978;5.058;2022-12-17T09:13:45;95.27;;;32.80;;
17424;SDS011;8830;50.978;5.058;2022-12-17T09:16:31;98.03;;;33.80;;
17424;SDS011;8830;50.978;5.058;2022-12-17T09:19:16;95.17;;;34.40;;
17424;SDS011;8830;50.978;5.058;2022-12-17T09:22:02;91.67;;;33.63;;
17424;SDS011;8830;50.978;5.058;2022-12-17T09:24:47;96.33;;;33.27;;
17424;SDS011;8830;50.978;5.058;2022-12-17T09:27:34;97.53;;;35.53;;
17424;SDS011;8830;50.978;5.058;2022-12-17T09:30:19;93.63;;;34.63;;
17424;SDS011;8830;50.978;5.058;2022-12-17T09:33:04;97.73;;;34.60;;
17424;SDS011;8830;50.978;5.058;2022-12-17T09:35:50;88.43;;;31.63;;
17424;SDS011;8830;50.978;5.058;2022-12-17T09:41:41;88.53;;;33.87;;
17424;SDS011;8830;50.978;5.058;2022-12-17T09:44:35;80.50;;;30.80;;
17424;SDS011;8830;50.978;5.058;2022-12-17T09:47:29;78.90;;;30.90;;
17424;SDS011;8830;50.978;5.058;2022-12-17T09:50:19;81.50;;;30.07;;
17424;SDS011;8830;50.978;5.058;2022-12-17T09:53:07;91.60;;;29.17;;
17424;SDS011;8830;50.978;5.058;2022-12-17T09:56:02;70.50;;;28.30;;
17424;SDS011;8830;50.978;5.058;2022-12-17T09:58:50;73.90;;;28.63;;
17424;SDS011;8830;50.978;5.058;2022-12-17T10:01:38;78.40;;;27.97;;
17424;SDS011;8830;50.978;5.058;2022-12-17T10:04:24;75.13;;;28.93;;
17424;SDS011;8830;50.978;5.058;2022-12-17T10:07:23;83.47;;;28.80;;
17424;SDS011;8830;50.978;5.058;2022-12-17T10:10:16;93.83;;;32.00;;
17424;SDS011;8830;50.978;5.058;2022-12-17T10:13:15;79.40;;;29.63;;
17424;SDS011;8830;50.978;5.058;2022-12-17T10:16:15;77.07;;;28.63;;
17424;SDS011;8830;50.978;5.058;2022-12-17T10:19:03;75.50;;;29.20;;
17424;SDS011;8830;50.978;5.058;2022-12-17T10:21:49;84.87;;;28.47;;
17424;SDS011;8830;50.978;5.058;2022-12-17T10:24:42;80.50;;;27.10;;
17424;SDS011;8830;50.978;5.058;2022-12-17T10:27:23;73.00;;;28.07;;
17424;SDS011;8830;50.978;5.058;2022-12-17T10:30:15;76.40;;;27.37;;
17424;SDS011;8830;50.978;5.058;2022-12-17T10:33:03;60.67;;;26.10;;
17424;SDS011;8830;50.978;5.058;2022-12-17T10:35:52;77.00;;;27.60;;
17424;SDS011;8830;50.978;5.058;2022-12-17T10:38:39;77.87;;;29.43;;
17424;SDS011;8830;50.978;5.058;2022-12-17T10:41:24;67.77;;;26.67;;
17424;SDS011;8830;50.978;5.058;2022-12-17T10:44:21;75.03;;;27.70;;
17424;SDS011;8830;50.978;5.058;2022-12-17T10:47:11;65.60;;;28.17;;
17424;SDS011;8830;50.978;5.058;2022-12-17T10:52:48;70.77;;;26.17;;
17424;SDS011;8830;50.978;5.058;2022-12-17T10:55:34;62.57;;;25.03;;
17424;SDS011;8830;50.978;5.058;2022-12-17T10:58:22;60.77;;;25.20;;
17424;SDS011;8830;50.978;5.058;2022-12-17T11:01:17;67.63;;;25.40;;
17424;SDS011;8830;50.978;5.058;2022-12-17T11:07:10;59.40;;;25.83;;
17424;SDS011;8830;50.978;5.058;2022-12-17T11:10:01;66.77;;;26.20;;
17424;SDS011;8830;50.978;5.058;2022-12-17T11:12:50;54.87;;;25.93;;
17424;SDS011;8830;50.978;5.058;2022-12-17T11:15:42;56.57;;;25.30;;
17424;SDS011;8830;50.978;5.058;2022-12-17T11:18:43;55.87;;;26.90;;
17424;SDS011;8830;50.978;5.058;2022-12-17T11:21:38;58.07;;;25.57;;
17424;SDS011;8830;50.978;5.058;2022-12-17T11:24:28;59.60;;;25.93;;
17424;SDS011;8830;50.978;5.058;2022-12-17T11:27:20;58.77;;;24.80;;
17424;SDS011;8830;50.978;5.058;2022-12-17T11:30:17;62.77;;;27.10;;
17424;SDS011;8830;50.978;5.058;2022-12-17T11:33:04;61.40;;;27.30;;
17424;SDS011;8830;50.978;5.058;2022-12-17T11:35:55;60.67;;;25.57;;
17424;SDS011;8830;50.978;5.058;2022-12-17T11:38:52;54.23;;;25.73;;
17424;SDS011;8830;50.978;5.058;2022-12-17T11:41:47;54.00;;;24.43;;
17424;SDS011;8830;50.978;5.058;2022-12-17T11:44:42;45.47;;;22.87;;
17424;SDS011;8830;50.978;5.058;2022-12-17T11:47:57;54.00;;;23.83;;
17424;SDS011;8830;50.978;5.058;2022-12-17T11:50:48;74.27;;;25.57;;
17424;SDS011;8830;50.978;5.058;2022-12-17T11:53:46;56.70;;;25.70;;
17424;SDS011;8830;50.978;5.058;2022-12-17T11:56:40;66.77;;;24.23;;
17424;SDS011;8830;50.978;5.058;2022-12-17T11:59:29;65.70;;;25.77;;
17424;SDS011;8830;50.978;5.058;2022-12-17T12:05:29;84.07;;;26.23;;
17424;SDS011;8830;50.978;5.058;2022-12-17T12:08:29;86.67;;;26.40;;
17424;SDS011;8830;50.978;5.058;2022-12-17T12:11:28;79.73;;;28.27;;
17424;SDS011;8830;50.978;5.058;2022-12-17T12:14:23;75.60;;;30.77;;
17424;SDS011;8830;50.978;5.058;2022-12-17T12:17:19;64.73;;;27.10;;
17424;SDS011;8830;50.978;5.058;2022-12-17T12:20:16;69.73;;;29.27;;
17424;SDS011;8830;50.978;5.058;2022-12-17T12:23:28;80.90;;;33.90;;
17424;SDS011;8830;50.978;5.058;2022-12-17T12:26:22;71.37;;;31.27;;
17424;SDS011;8830;50.978;5.058;2022-12-17T12:29:16;74.10;;;31.37;;
17424;SDS011;8830;50.978;5.058;2022-12-17T12:32:12;75.60;;;31.93;;
17424;SDS011;8830;50.978;5.058;2022-12-17T12:35:06;68.40;;;30.83;;
17424;SDS011;8830;50.978;5.058;2022-12-17T12:37:58;66.30;;;30.00;;
17424;SDS011;8830;50.978;5.058;2022-12-17T12:40:46;72.23;;;30.23;;
17424;SDS011;8830;50.978;5.058;2022-12-17T12:43:37;73.77;;;30.97;;
17424;SDS011;8830;50.978;5.058;2022-12-17T12:46:31;64.07;;;30.87;;
17424;SDS011;8830;50.978;5.058;2022-12-17T12:49:24;61.63;;;27.70;;
17424;SDS011;8830;50.978;5.058;2022-12-17T12:52:16;59.83;;;28.37;;
17424;SDS011;8830;50.978;5.058;2022-12-17T12:55:05;68.53;;;30.30;;
17424;SDS011;8830;50.978;5.058;2022-12-17T12:57:56;66.53;;;29.73;;
17424;SDS011;8830;50.978;5.058;2022-12-17T13:00:52;70.47;;;30.20;;
17424;SDS011;8830;50.978;5.058;2022-12-17T13:03:39;62.03;;;28.70;;
17424;SDS011;8830;50.978;5.058;2022-12-17T13:06:44;65.03;;;31.37;;
17424;SDS011;8830;50.978;5.058;2022-12-17T13:09:36;64.23;;;29.37;;
17424;SDS011;8830;50.978;5.058;2022-12-17T13:12:21;65.13;;;29.40;;
17424;SDS011;8830;50.978;5.058;2022-12-17T13:17:56;68.10;;;29.90;;
17424;SDS011;8830;50.978;5.058;2022-12-17T13:20:30;61.70;;;28.30;;
17424;SDS011;8830;50.978;5.058;2022-12-17T13:26:18;56.37;;;26.87;;
17424;SDS011;8830;50.978;5.058;2022-12-17T13:28:57;54.13;;;25.80;;
17424;SDS011;8830;50.978;5.058;2022-12-17T13:31:27;57.43;;;26.93;;
17424;SDS011;8830;50.978;5.058;2022-12-17T13:33:59;54.00;;;26.63;;
17424;SDS011;8830;50.978;5.058;2022-12-17T13:39:12;63.30;;;27.13;;
17424;SDS011;8830;50.978;5.058;2022-12-17T13:41:53;58.93;;;27.30;;
17424;SDS011;8830;50.978;5.058;2022-12-17T13:44:21;55.23;;;26.30;;
17424;SDS011;8830;50.978;5.058;2022-12-17T13:46:51;58.90;;;27.30;;
17424;SDS011;8830;50.978;5.058;2022-12-17T13:49:27;62.03;;;27.77;;
17424;SDS011;8830;50.978;5.058;2022-12-17T13:52:02;61.87;;;25.83;;
17424;SDS011;8830;50.978;5.058;2022-12-17T13:54:31;52.67;;;25.47;;
17424;SDS011;8830;50.978;5.058;2022-12-17T13:57:07;67.53;;;26.23;;
17424;SDS011;8830;50.978;5.058;2022-12-17T13:59:36;52.53;;;23.83;;
17424;SDS011;8830;50.978;5.058;2022-12-17T14:02:05;57.03;;;26.43;;
17424;SDS011;8830;50.978;5.058;2022-12-17T14:04:52;55.73;;;25.13;;
17424;SDS011;8830;50.978;5.058;2022-12-17T14:07:20;61.10;;;28.10;;
17424;SDS011;8830;50.978;5.058;2022-12-17T14:09:48;54.70;;;24.93;;
17424;SDS011;8830;50.978;5.058;2022-12-17T14:12:17;54.00;;;25.60;;
17424;SDS011;8830;50.978;5.058;2022-12-17T14:14:50;59.97;;;24.63;;
17424;SDS011;8830;50.978;5.058;2022-12-17T14:22:52;61.73;;;27.13;;
17424;SDS011;8830;50.978;5.058;2022-12-17T14:25:31;58.97;;;25.83;;
17424;SDS011;8830;50.978;5.058;2022-12-17T14:28:02;65.90;;;28.80;;
17424;SDS011;8830;50.978;5.058;2022-12-17T14:34:18;62.23;;;26.40;;
17424;SDS011;8830;50.978;5.058;2022-12-17T14:36:57;69.80;;;25.30;;
17424;SDS011;8830;50.978;5.058;2022-12-17T14:42:06;63.10;;;29.17;;
17424;SDS011;8830;50.978;5.058;2022-12-17T14:45:04;64.00;;;27.43;;
17424;SDS011;8830;50.978;5.058;2022-12-17T14:47:53;73.27;;;24.47;;
17424;SDS011;8830;50.978;5.058;2022-12-17T14:50:28;68.47;;;26.93;;
17424;SDS011;8830;50.978;5.058;2022-12-17T14:56:24;77.37;;;26.07;;
17424;SDS011;8830;50.978;5.058;2022-12-17T15:02:53;69.83;;;26.60;;
17424;SDS011;8830;50.978;5.058;2022-12-17T15:10:45;59.53;;;23.50;;
17424;SDS011;8830;50.978;5.058;2022-12-17T15:25:25;65.10;;;24.97;;
17424;SDS011;8830;50.978;5.058;2022-12-17T15:36:25;50.53;;;24.33;;
17424;SDS011;8830;50.978;5.058;2022-12-17T15:41:33;92.47;;;25.60;;
17424;SDS011;8830;50.978;5.058;2022-12-17T15:44:20;81.33;;;28.63;;
17424;SDS011;8830;50.978;5.058;2022-12-17T15:46:57;188.37;;;27.80;;
17424;SDS011;8830;50.978;5.058;2022-12-17T15:49:25;125.33;;;28.10;;
17424;SDS011;8830;50.978;5.058;2022-12-17T15:51:54;86.43;;;26.80;;
17424;SDS011;8830;50.978;5.058;2022-12-17T15:54:28;114.17;;;30.27;;
17424;SDS011;8830;50.978;5.058;2022-12-17T15:57:11;204.13;;;26.70;;
17424;SDS011;8830;50.978;5.058;2022-12-17T15:59:39;113.60;;;29.23;;
17424;SDS011;8830;50.978;5.058;2022-12-17T16:02:07;153.17;;;28.50;;
17424;SDS011;8830;50.978;5.058;2022-12-17T16:04:35;139.73;;;29.43;;
17424;SDS011;8830;50.978;5.058;2022-12-17T16:07:02;104.53;;;29.53;;
17424;SDS011;8830;50.978;5.058;2022-12-17T16:09:29;118.17;;;29.00;;
17424;SDS011;8830;50.978;5.058;2022-12-17T16:11:57;130.67;;;35.97;;
17424;SDS011;8830;50.978;5.058;2022-12-17T16:14:27;182.10;;;30.73;;
17424;SDS011;8830;50.978;5.058;2022-12-17T16:16:54;272.90;;;29.60;;
17424;SDS011;8830;50.978;5.058;2022-12-17T16:19:21;138.37;;;29.23;;
17424;SDS011;8830;50.978;5.058;2022-12-17T16:21:48;179.13;;;29.90;;
17424;SDS011;8830;50.978;5.058;2022-12-17T16:24:15;222.33;;;30.17;;
17424;SDS011;8830;50.978;5.058;2022-12-17T16:26:43;126.27;;;32.97;;
17424;SDS011;8830;50.978;5.058;2022-12-17T16:29:10;102.40;;;29.43;;
17424;SDS011;8830;50.978;5.058;2022-12-17T16:31:38;179.53;;;28.73;;
17424;SDS011;8830;50.978;5.058;2022-12-17T16:34:06;181.10;;;30.33;;
17424;SDS011;8830;50.978;5.058;2022-12-17T16:36:36;121.67;;;27.93;;
17424;SDS011;8830;50.978;5.058;2022-12-17T16:39:04;278.67;;;28.77;;
17424;SDS011;8830;50.978;5.058;2022-12-17T16:41:31;198.00;;;28.90;;
17424;SDS011;8830;50.978;5.058;2022-12-17T16:44:00;197.67;;;30.50;;
17424;SDS011;8830;50.978;5.058;2022-12-17T16:46:28;133.63;;;29.13;;
17424;SDS011;8830;50.978;5.058;2022-12-17T16:48:59;175.63;;;29.77;;
17424;SDS011;8830;50.978;5.058;2022-12-17T16:51:30;165.53;;;30.50;;
17424;SDS011;8830;50.978;5.058;2022-12-17T16:53:57;135.87;;;31.37;;
17424;SDS011;8830;50.978;5.058;2022-12-17T16:56:26;102.63;;;28.70;;
17424;SDS011;8830;50.978;5.058;2022-12-17T16:58:54;133.83;;;30.43;;
17424;SDS011;8830;50.978;5.058;2022-12-17T17:01:23;157.93;;;31.50;;
17424;SDS011;8830;50.978;5.058;2022-12-17T17:03:52;114.33;;;31.87;;
17424;SDS011;8830;50.978;5.058;2022-12-17T17:06:21;105.27;;;31.97;;
17424;SDS011;8830;50.978;5.058;2022-12-17T17:08:49;101.30;;;28.90;;
17424;SDS011;8830;50.978;5.058;2022-12-17T17:11:17;151.07;;;31.80;;
17424;SDS011;8830;50.978;5.058;2022-12-17T17:13:45;117.47;;;29.60;;
17424;SDS011;8830;50.978;5.058;2022-12-17T17:16:13;126.10;;;30.80;;
17424;SDS011;8830;50.978;5.058;2022-12-17T17:18:41;108.40;;;29.37;;
17424;SDS011;8830;50.978;5.058;2022-12-17T17:21:15;177.73;;;31.90;;
17424;SDS011;8830;50.978;5.058;2022-12-17T17:23:51;224.57;;;31.87;;
17424;SDS011;8830;50.978;5.058;2022-12-17T17:26:19;223.07;;;31.70;;